sensor_id;sensor_type;location;lat;lon;timestamp;P1;durP1;ratioP1;P2;durP2;ratioP2
8714;SDS011;4394;51.208;8.904;2022-07-11T00:01:38;3.73;;;3.10;;
8714;SDS011;4394;51.208;8.904;2022-07-11T00:04:26;6.57;;;3.77;;
8714;SDS011;4394;51.208;8.904;2022-07-11T00:07:14;4.33;;;3.40;;
8714;SDS011;4394;51.208;8.904;2022-07-11T00:10:03;6.57;;;3.17;;
8714;SDS011;4394;51.208;8.904;2022-07-11T00:12:51;4.33;;;3.40;;
8714;SDS011;4394;51.208;8.904;2022-07-11T00:15:40;4.50;;;3.23;;
8714;SDS011;4394;51.208;8.904;2022-07-11T00:18:28;4.00;;;3.20;;
8714;SDS011;4394;51.208;8.904;2022-07-11T00:21:16;4.67;;;3.40;;
8714;SDS011;4394;51.208;8.904;2022-07-11T00:24:05;5.73;;;3.57;;
8714;SDS011;4394;51.208;8.904;2022-07-11T00:26:53;3.70;;;3.03;;
8714;SDS011;4394;51.208;8.904;2022-07-11T00:29:41;5.33;;;3.07;;
8714;SDS011;4394;51.208;8.904;2022-07-11T00:32:31;3.27;;;2.90;;
8714;SDS011;4394;51.208;8.904;2022-07-11T00:35:19;6.13;;;3.63;;
8714;SDS011;4394;51.208;8.904;2022-07-11T00:38:08;6.67;;;3.40;;
8714;SDS011;4394;51.208;8.904;2022-07-11T00:40:56;4.30;;;3.27;;
8714;SDS011;4394;51.208;8.904;2022-07-11T00:43:49;5.73;;;3.00;;
8714;SDS011;4394;51.208;8.904;2022-07-11T00:46:39;4.17;;;3.20;;
8714;SDS011;4394;51.208;8.904;2022-07-11T00:49:28;4.40;;;3.23;;
8714;SDS011;4394;51.208;8.904;2022-07-11T00:52:16;4.43;;;3.17;;
8714;SDS011;4394;51.208;8.904;2022-07-11T00:55:05;6.13;;;3.13;;
8714;SDS011;4394;51.208;8.904;2022-07-11T00:57:54;3.87;;;3.23;;
8714;SDS011;4394;51.208;8.904;2022-07-11T01:00:42;5.57;;;3.27;;
8714;SDS011;4394;51.208;8.904;2022-07-11T01:03:30;3.40;;;2.93;;
8714;SDS011;4394;51.208;8.904;2022-07-11T01:06:22;3.27;;;2.97;;
8714;SDS011;4394;51.208;8.904;2022-07-11T01:09:10;3.07;;;2.63;;
8714;SDS011;4394;51.208;8.904;2022-07-11T01:11:58;3.50;;;2.60;;
8714;SDS011;4394;51.208;8.904;2022-07-11T01:14:52;6.17;;;4.07;;
8714;SDS011;4394;51.208;8.904;2022-07-11T01:17:41;3.83;;;2.73;;
8714;SDS011;4394;51.208;8.904;2022-07-11T01:20:29;3.73;;;2.80;;
8714;SDS011;4394;51.208;8.904;2022-07-11T01:23:19;4.87;;;2.83;;
8714;SDS011;4394;51.208;8.904;2022-07-11T01:26:08;3.20;;;2.77;;
8714;SDS011;4394;51.208;8.904;2022-07-11T01:29:04;4.37;;;2.63;;
8714;SDS011;4394;51.208;8.904;2022-07-11T01:31:52;6.57;;;3.13;;
8714;SDS011;4394;51.208;8.904;2022-07-11T01:34:40;4.37;;;2.50;;
8714;SDS011;4394;51.208;8.904;2022-07-11T01:37:28;3.77;;;3.30;;
8714;SDS011;4394;51.208;8.904;2022-07-11T01:40:18;4.07;;;2.63;;
8714;SDS011;4394;51.208;8.904;2022-07-11T01:43:06;3.50;;;3.00;;
8714;SDS011;4394;51.208;8.904;2022-07-11T01:45:55;3.57;;;2.67;;
8714;SDS011;4394;51.208;8.904;2022-07-11T01:48:43;4.60;;;2.73;;
8714;SDS011;4394;51.208;8.904;2022-07-11T01:51:31;4.33;;;2.87;;
8714;SDS011;4394;51.208;8.904;2022-07-11T01:54:21;3.57;;;2.63;;
8714;SDS011;4394;51.208;8.904;2022-07-11T01:57:10;3.77;;;2.93;;
8714;SDS011;4394;51.208;8.904;2022-07-11T01:59:58;4.00;;;3.43;;
8714;SDS011;4394;51.208;8.904;2022-07-11T02:02:48;4.40;;;3.20;;
8714;SDS011;4394;51.208;8.904;2022-07-11T02:05:36;5.67;;;3.37;;
8714;SDS011;4394;51.208;8.904;2022-07-11T02:08:25;4.50;;;3.17;;
8714;SDS011;4394;51.208;8.904;2022-07-11T02:11:14;4.80;;;3.20;;
8714;SDS011;4394;51.208;8.904;2022-07-11T02:14:03;4.37;;;3.60;;
8714;SDS011;4394;51.208;8.904;2022-07-11T02:16:51;5.67;;;3.37;;
8714;SDS011;4394;51.208;8.904;2022-07-11T02:19:39;7.93;;;3.20;;
8714;SDS011;4394;51.208;8.904;2022-07-11T02:22:27;3.70;;;3.20;;
8714;SDS011;4394;51.208;8.904;2022-07-11T02:25:16;7.37;;;4.33;;
8714;SDS011;4394;51.208;8.904;2022-07-11T02:28:05;4.97;;;3.67;;
8714;SDS011;4394;51.208;8.904;2022-07-11T02:30:55;7.43;;;3.37;;
8714;SDS011;4394;51.208;8.904;2022-07-11T02:33:43;4.67;;;3.70;;
8714;SDS011;4394;51.208;8.904;2022-07-11T02:36:32;5.33;;;4.67;;
8714;SDS011;4394;51.208;8.904;2022-07-11T02:39:20;6.77;;;4.63;;
8714;SDS011;4394;51.208;8.904;2022-07-11T02:42:08;6.03;;;4.43;;
8714;SDS011;4394;51.208;8.904;2022-07-11T02:44:55;6.90;;;5.27;;
8714;SDS011;4394;51.208;8.904;2022-07-11T02:47:45;7.30;;;4.90;;
8714;SDS011;4394;51.208;8.904;2022-07-11T02:50:32;4.63;;;4.23;;
8714;SDS011;4394;51.208;8.904;2022-07-11T02:53:20;5.97;;;5.37;;
8714;SDS011;4394;51.208;8.904;2022-07-11T02:56:08;8.77;;;5.90;;
8714;SDS011;4394;51.208;8.904;2022-07-11T02:58:56;8.33;;;5.57;;
8714;SDS011;4394;51.208;8.904;2022-07-11T03:01:44;9.13;;;6.33;;
8714;SDS011;4394;51.208;8.904;2022-07-11T03:04:34;7.17;;;5.67;;
8714;SDS011;4394;51.208;8.904;2022-07-11T03:07:22;9.47;;;6.23;;
8714;SDS011;4394;51.208;8.904;2022-07-11T03:10:10;8.13;;;6.30;;
8714;SDS011;4394;51.208;8.904;2022-07-11T03:12:58;7.70;;;6.00;;
8714;SDS011;4394;51.208;8.904;2022-07-11T03:15:46;7.80;;;6.37;;
8714;SDS011;4394;51.208;8.904;2022-07-11T03:18:34;6.70;;;6.00;;
8714;SDS011;4394;51.208;8.904;2022-07-11T03:21:23;7.17;;;5.97;;
8714;SDS011;4394;51.208;8.904;2022-07-11T03:24:12;8.83;;;6.20;;
8714;SDS011;4394;51.208;8.904;2022-07-11T03:26:59;8.73;;;6.00;;
8714;SDS011;4394;51.208;8.904;2022-07-11T03:29:47;7.47;;;5.80;;
8714;SDS011;4394;51.208;8.904;2022-07-11T03:32:36;6.03;;;5.43;;
8714;SDS011;4394;51.208;8.904;2022-07-11T03:35:24;6.97;;;5.40;;
8714;SDS011;4394;51.208;8.904;2022-07-11T03:38:31;7.50;;;5.33;;
8714;SDS011;4394;51.208;8.904;2022-07-11T03:41:19;8.77;;;5.50;;
8714;SDS011;4394;51.208;8.904;2022-07-11T03:44:07;6.57;;;5.57;;
8714;SDS011;4394;51.208;8.904;2022-07-11T03:46:55;8.33;;;6.87;;
8714;SDS011;4394;51.208;8.904;2022-07-11T03:49:43;9.17;;;6.10;;
8714;SDS011;4394;51.208;8.904;2022-07-11T03:52:31;10.63;;;6.23;;
8714;SDS011;4394;51.208;8.904;2022-07-11T03:55:21;8.57;;;6.80;;
8714;SDS011;4394;51.208;8.904;2022-07-11T03:58:09;11.47;;;6.70;;
8714;SDS011;4394;51.208;8.904;2022-07-11T04:00:57;12.57;;;6.77;;
8714;SDS011;4394;51.208;8.904;2022-07-11T04:03:45;10.00;;;6.93;;
8714;SDS011;4394;51.208;8.904;2022-07-11T04:06:33;9.23;;;7.07;;
8714;SDS011;4394;51.208;8.904;2022-07-11T04:09:21;12.50;;;7.90;;
8714;SDS011;4394;51.208;8.904;2022-07-11T04:12:12;12.33;;;7.83;;
8714;SDS011;4394;51.208;8.904;2022-07-11T04:15:00;10.97;;;7.73;;
8714;SDS011;4394;51.208;8.904;2022-07-11T04:17:48;12.47;;;7.83;;
8714;SDS011;4394;51.208;8.904;2022-07-11T04:20:36;9.80;;;7.77;;
8714;SDS011;4394;51.208;8.904;2022-07-11T04:23:24;9.73;;;7.80;;
8714;SDS011;4394;51.208;8.904;2022-07-11T04:26:12;14.90;;;8.17;;
8714;SDS011;4394;51.208;8.904;2022-07-11T04:29:01;11.73;;;7.77;;
8714;SDS011;4394;51.208;8.904;2022-07-11T04:31:49;11.07;;;7.70;;
8714;SDS011;4394;51.208;8.904;2022-07-11T04:34:37;10.47;;;6.70;;
8714;SDS011;4394;51.208;8.904;2022-07-11T04:37:25;10.00;;;7.03;;
8714;SDS011;4394;51.208;8.904;2022-07-11T04:40:13;12.03;;;6.63;;
8714;SDS011;4394;51.208;8.904;2022-07-11T04:43:03;6.10;;;5.13;;
8714;SDS011;4394;51.208;8.904;2022-07-11T04:45:52;6.53;;;5.40;;
8714;SDS011;4394;51.208;8.904;2022-07-11T04:48:45;8.03;;;5.43;;
8714;SDS011;4394;51.208;8.904;2022-07-11T04:51:33;7.87;;;5.37;;
8714;SDS011;4394;51.208;8.904;2022-07-11T04:54:22;5.17;;;3.90;;
8714;SDS011;4394;51.208;8.904;2022-07-11T04:57:10;5.73;;;3.40;;
8714;SDS011;4394;51.208;8.904;2022-07-11T04:59:58;4.73;;;3.20;;
8714;SDS011;4394;51.208;8.904;2022-07-11T05:02:48;2.77;;;2.57;;
8714;SDS011;4394;51.208;8.904;2022-07-11T05:05:36;3.00;;;2.70;;
8714;SDS011;4394;51.208;8.904;2022-07-11T05:08:23;2.70;;;2.50;;
8714;SDS011;4394;51.208;8.904;2022-07-11T05:11:11;3.57;;;2.50;;
8714;SDS011;4394;51.208;8.904;2022-07-11T05:14:00;2.13;;;1.90;;
8714;SDS011;4394;51.208;8.904;2022-07-11T05:16:48;3.33;;;1.77;;
8714;SDS011;4394;51.208;8.904;2022-07-11T05:19:37;2.80;;;2.30;;
8714;SDS011;4394;51.208;8.904;2022-07-11T05:22:25;2.93;;;2.00;;
8714;SDS011;4394;51.208;8.904;2022-07-11T05:25:13;3.77;;;2.53;;
8714;SDS011;4394;51.208;8.904;2022-07-11T05:28:01;3.30;;;2.10;;
8714;SDS011;4394;51.208;8.904;2022-07-11T05:30:49;2.43;;;1.90;;
8714;SDS011;4394;51.208;8.904;2022-07-11T05:33:37;3.93;;;2.23;;
8714;SDS011;4394;51.208;8.904;2022-07-11T05:36:27;2.17;;;1.93;;
8714;SDS011;4394;51.208;8.904;2022-07-11T05:39:14;2.50;;;2.30;;
8714;SDS011;4394;51.208;8.904;2022-07-11T05:42:02;2.90;;;2.60;;
8714;SDS011;4394;51.208;8.904;2022-07-11T05:44:51;3.27;;;2.60;;
8714;SDS011;4394;51.208;8.904;2022-07-11T05:47:38;4.33;;;2.80;;
8714;SDS011;4394;51.208;8.904;2022-07-11T05:50:26;3.27;;;2.63;;
8714;SDS011;4394;51.208;8.904;2022-07-11T05:53:15;3.33;;;2.97;;
8714;SDS011;4394;51.208;8.904;2022-07-11T05:56:04;3.13;;;2.60;;
8714;SDS011;4394;51.208;8.904;2022-07-11T05:58:53;3.57;;;3.27;;
8714;SDS011;4394;51.208;8.904;2022-07-11T06:01:41;3.33;;;3.03;;
8714;SDS011;4394;51.208;8.904;2022-07-11T06:04:29;3.90;;;3.20;;
8714;SDS011;4394;51.208;8.904;2022-07-11T06:07:19;4.07;;;3.30;;
8714;SDS011;4394;51.208;8.904;2022-07-11T06:10:22;4.57;;;3.47;;
8714;SDS011;4394;51.208;8.904;2022-07-11T06:13:10;5.60;;;3.60;;
8714;SDS011;4394;51.208;8.904;2022-07-11T06:15:58;4.50;;;3.50;;
8714;SDS011;4394;51.208;8.904;2022-07-11T06:18:46;5.50;;;3.20;;
8714;SDS011;4394;51.208;8.904;2022-07-11T06:21:34;3.93;;;3.27;;
8714;SDS011;4394;51.208;8.904;2022-07-11T06:24:22;4.30;;;3.60;;
8714;SDS011;4394;51.208;8.904;2022-07-11T06:27:11;6.30;;;3.80;;
8714;SDS011;4394;51.208;8.904;2022-07-11T06:29:59;4.53;;;3.80;;
8714;SDS011;4394;51.208;8.904;2022-07-11T06:32:47;6.40;;;4.50;;
8714;SDS011;4394;51.208;8.904;2022-07-11T06:35:35;5.13;;;4.20;;
8714;SDS011;4394;51.208;8.904;2022-07-11T06:38:23;7.13;;;4.20;;
8714;SDS011;4394;51.208;8.904;2022-07-11T06:41:11;6.03;;;4.23;;
8714;SDS011;4394;51.208;8.904;2022-07-11T06:44:00;6.77;;;4.67;;
8714;SDS011;4394;51.208;8.904;2022-07-11T06:46:48;8.63;;;4.83;;
8714;SDS011;4394;51.208;8.904;2022-07-11T06:49:36;6.47;;;5.20;;
8714;SDS011;4394;51.208;8.904;2022-07-11T06:52:24;7.33;;;5.20;;
8714;SDS011;4394;51.208;8.904;2022-07-11T06:55:11;8.27;;;5.20;;
8714;SDS011;4394;51.208;8.904;2022-07-11T06:58:00;7.53;;;5.33;;
8714;SDS011;4394;51.208;8.904;2022-07-11T07:01:09;10.37;;;6.97;;
8714;SDS011;4394;51.208;8.904;2022-07-11T07:03:57;7.60;;;5.97;;
8714;SDS011;4394;51.208;8.904;2022-07-11T07:06:45;7.13;;;6.20;;
8714;SDS011;4394;51.208;8.904;2022-07-11T07:09:33;9.13;;;5.80;;
8714;SDS011;4394;51.208;8.904;2022-07-11T07:12:21;10.67;;;6.63;;
8714;SDS011;4394;51.208;8.904;2022-07-11T07:15:09;8.80;;;5.90;;
8714;SDS011;4394;51.208;8.904;2022-07-11T07:17:59;8.33;;;5.83;;
8714;SDS011;4394;51.208;8.904;2022-07-11T07:20:49;9.60;;;6.53;;
8714;SDS011;4394;51.208;8.904;2022-07-11T07:23:37;8.70;;;7.20;;
8714;SDS011;4394;51.208;8.904;2022-07-11T07:26:25;11.13;;;6.73;;
8714;SDS011;4394;51.208;8.904;2022-07-11T07:29:13;8.57;;;6.70;;
8714;SDS011;4394;51.208;8.904;2022-07-11T07:32:01;9.50;;;7.20;;
8714;SDS011;4394;51.208;8.904;2022-07-11T07:34:51;10.90;;;7.43;;
8714;SDS011;4394;51.208;8.904;2022-07-11T07:37:39;10.00;;;6.80;;
8714;SDS011;4394;51.208;8.904;2022-07-11T07:40:27;7.80;;;6.57;;
8714;SDS011;4394;51.208;8.904;2022-07-11T07:43:15;10.60;;;7.10;;
8714;SDS011;4394;51.208;8.904;2022-07-11T07:46:04;8.33;;;6.67;;
8714;SDS011;4394;51.208;8.904;2022-07-11T07:48:55;8.97;;;5.87;;
8714;SDS011;4394;51.208;8.904;2022-07-11T07:51:44;8.50;;;6.10;;
8714;SDS011;4394;51.208;8.904;2022-07-11T07:54:32;7.07;;;6.10;;
8714;SDS011;4394;51.208;8.904;2022-07-11T07:57:20;7.60;;;5.90;;
8714;SDS011;4394;51.208;8.904;2022-07-11T08:00:08;9.23;;;5.87;;
8714;SDS011;4394;51.208;8.904;2022-07-11T08:03:14;7.77;;;6.40;;
8714;SDS011;4394;51.208;8.904;2022-07-11T08:06:02;7.90;;;6.00;;
8714;SDS011;4394;51.208;8.904;2022-07-11T08:08:51;7.53;;;5.60;;
8714;SDS011;4394;51.208;8.904;2022-07-11T08:11:39;7.33;;;5.47;;
8714;SDS011;4394;51.208;8.904;2022-07-11T08:14:27;6.67;;;5.73;;
8714;SDS011;4394;51.208;8.904;2022-07-11T08:17:15;7.10;;;5.60;;
8714;SDS011;4394;51.208;8.904;2022-07-11T08:20:04;7.60;;;5.47;;
8714;SDS011;4394;51.208;8.904;2022-07-11T08:22:52;6.47;;;5.03;;
8714;SDS011;4394;51.208;8.904;2022-07-11T08:25:47;7.30;;;4.80;;
8714;SDS011;4394;51.208;8.904;2022-07-11T08:28:34;5.73;;;4.47;;
8714;SDS011;4394;51.208;8.904;2022-07-11T08:31:22;4.77;;;4.23;;
8714;SDS011;4394;51.208;8.904;2022-07-11T08:34:11;5.00;;;4.10;;
8714;SDS011;4394;51.208;8.904;2022-07-11T08:37:02;5.17;;;3.80;;
8714;SDS011;4394;51.208;8.904;2022-07-11T08:39:50;6.07;;;3.70;;
8714;SDS011;4394;51.208;8.904;2022-07-11T08:42:41;5.53;;;3.40;;
8714;SDS011;4394;51.208;8.904;2022-07-11T08:45:30;4.07;;;3.60;;
8714;SDS011;4394;51.208;8.904;2022-07-11T08:48:18;5.10;;;4.00;;
8714;SDS011;4394;51.208;8.904;2022-07-11T08:51:07;7.17;;;4.00;;
8714;SDS011;4394;51.208;8.904;2022-07-11T08:53:56;4.40;;;4.00;;
8714;SDS011;4394;51.208;8.904;2022-07-11T08:56:55;6.10;;;4.87;;
8714;SDS011;4394;51.208;8.904;2022-07-11T08:59:47;4.77;;;4.30;;
8714;SDS011;4394;51.208;8.904;2022-07-11T09:02:41;5.43;;;4.60;;
8714;SDS011;4394;51.208;8.904;2022-07-11T09:05:46;6.67;;;4.77;;
8714;SDS011;4394;51.208;8.904;2022-07-11T09:08:34;7.97;;;5.43;;
8714;SDS011;4394;51.208;8.904;2022-07-11T09:11:22;4.90;;;4.27;;
8714;SDS011;4394;51.208;8.904;2022-07-11T09:14:11;4.53;;;4.13;;
8714;SDS011;4394;51.208;8.904;2022-07-11T09:17:18;5.67;;;4.20;;
8714;SDS011;4394;51.208;8.904;2022-07-11T09:20:11;6.73;;;4.33;;
8714;SDS011;4394;51.208;8.904;2022-07-11T09:22:59;5.73;;;4.37;;
8714;SDS011;4394;51.208;8.904;2022-07-11T09:26:05;5.00;;;3.70;;
8714;SDS011;4394;51.208;8.904;2022-07-11T09:29:00;4.57;;;3.57;;
8714;SDS011;4394;51.208;8.904;2022-07-11T09:31:50;4.53;;;4.10;;
8714;SDS011;4394;51.208;8.904;2022-07-11T09:34:39;4.50;;;3.63;;
8714;SDS011;4394;51.208;8.904;2022-07-11T09:37:46;4.17;;;3.70;;
8714;SDS011;4394;51.208;8.904;2022-07-11T09:40:35;4.70;;;3.23;;
8714;SDS011;4394;51.208;8.904;2022-07-11T09:43:24;3.90;;;3.60;;
8714;SDS011;4394;51.208;8.904;2022-07-11T09:46:14;4.37;;;3.50;;
8714;SDS011;4394;51.208;8.904;2022-07-11T09:49:11;4.50;;;3.87;;
8714;SDS011;4394;51.208;8.904;2022-07-11T09:52:10;4.53;;;4.07;;
8714;SDS011;4394;51.208;8.904;2022-07-11T09:54:59;6.80;;;4.50;;
8714;SDS011;4394;51.208;8.904;2022-07-11T09:58:05;5.77;;;4.40;;
8714;SDS011;4394;51.208;8.904;2022-07-11T10:00:56;4.33;;;3.90;;
8714;SDS011;4394;51.208;8.904;2022-07-11T10:03:44;5.10;;;4.60;;
8714;SDS011;4394;51.208;8.904;2022-07-11T10:06:44;4.83;;;4.20;;
8714;SDS011;4394;51.208;8.904;2022-07-11T10:09:33;5.23;;;4.37;;
8714;SDS011;4394;51.208;8.904;2022-07-11T10:12:22;5.07;;;4.43;;
8714;SDS011;4394;51.208;8.904;2022-07-11T10:15:11;5.57;;;4.23;;
8714;SDS011;4394;51.208;8.904;2022-07-11T10:18:04;5.57;;;4.37;;
8714;SDS011;4394;51.208;8.904;2022-07-11T10:20:58;5.57;;;4.17;;
8714;SDS011;4394;51.208;8.904;2022-07-11T10:23:52;5.70;;;4.23;;
8714;SDS011;4394;51.208;8.904;2022-07-11T10:26:48;3.73;;;3.43;;
8714;SDS011;4394;51.208;8.904;2022-07-11T10:29:47;7.97;;;4.50;;
8714;SDS011;4394;51.208;8.904;2022-07-11T10:32:57;4.13;;;3.60;;
8714;SDS011;4394;51.208;8.904;2022-07-11T10:35:46;4.00;;;3.60;;
8714;SDS011;4394;51.208;8.904;2022-07-11T10:38:36;4.77;;;3.83;;
8714;SDS011;4394;51.208;8.904;2022-07-11T10:41:24;5.23;;;3.83;;
8714;SDS011;4394;51.208;8.904;2022-07-11T10:44:14;4.23;;;3.83;;
8714;SDS011;4394;51.208;8.904;2022-07-11T10:47:03;3.80;;;3.40;;
8714;SDS011;4394;51.208;8.904;2022-07-11T10:50:25;3.90;;;3.50;;
8714;SDS011;4394;51.208;8.904;2022-07-11T10:53:20;3.73;;;3.40;;
8714;SDS011;4394;51.208;8.904;2022-07-11T10:56:13;3.77;;;3.47;;
8714;SDS011;4394;51.208;8.904;2022-07-11T10:59:35;4.43;;;3.80;;
8714;SDS011;4394;51.208;8.904;2022-07-11T11:03:02;4.33;;;3.87;;
8714;SDS011;4394;51.208;8.904;2022-07-11T11:05:52;4.27;;;3.13;;
8714;SDS011;4394;51.208;8.904;2022-07-11T11:08:44;4.73;;;4.23;;
8714;SDS011;4394;51.208;8.904;2022-07-11T11:11:34;4.33;;;3.50;;
8714;SDS011;4394;51.208;8.904;2022-07-11T11:14:24;3.63;;;3.30;;
8714;SDS011;4394;51.208;8.904;2022-07-11T11:17:34;4.10;;;3.57;;
8714;SDS011;4394;51.208;8.904;2022-07-11T11:20:32;3.50;;;3.20;;
8714;SDS011;4394;51.208;8.904;2022-07-11T11:23:21;3.50;;;3.10;;
8714;SDS011;4394;51.208;8.904;2022-07-11T11:26:10;3.30;;;3.00;;
8714;SDS011;4394;51.208;8.904;2022-07-11T11:29:00;3.27;;;2.97;;
8714;SDS011;4394;51.208;8.904;2022-07-11T11:31:51;3.00;;;2.63;;
8714;SDS011;4394;51.208;8.904;2022-07-11T11:34:41;2.60;;;2.40;;
8714;SDS011;4394;51.208;8.904;2022-07-11T11:37:30;3.53;;;2.73;;
8714;SDS011;4394;51.208;8.904;2022-07-11T11:40:20;2.43;;;2.23;;
8714;SDS011;4394;51.208;8.904;2022-07-11T11:43:08;2.53;;;2.33;;
8714;SDS011;4394;51.208;8.904;2022-07-11T11:46:05;2.10;;;2.00;;
8714;SDS011;4394;51.208;8.904;2022-07-11T11:48:54;2.23;;;2.03;;
8714;SDS011;4394;51.208;8.904;2022-07-11T11:51:43;2.43;;;2.00;;
8714;SDS011;4394;51.208;8.904;2022-07-11T11:54:31;1.70;;;1.60;;
8714;SDS011;4394;51.208;8.904;2022-07-11T11:57:20;2.80;;;2.07;;
8714;SDS011;4394;51.208;8.904;2022-07-11T12:00:19;3.03;;;2.20;;
8714;SDS011;4394;51.208;8.904;2022-07-11T12:03:45;2.23;;;2.03;;
8714;SDS011;4394;51.208;8.904;2022-07-11T12:06:35;2.27;;;2.07;;
8714;SDS011;4394;51.208;8.904;2022-07-11T12:09:25;2.93;;;1.60;;
8714;SDS011;4394;51.208;8.904;2022-07-11T12:12:28;1.60;;;1.43;;
8714;SDS011;4394;51.208;8.904;2022-07-11T12:15:39;3.97;;;1.90;;
8714;SDS011;4394;51.208;8.904;2022-07-11T12:18:41;2.23;;;1.77;;
8714;SDS011;4394;51.208;8.904;2022-07-11T12:21:29;1.80;;;1.70;;
8714;SDS011;4394;51.208;8.904;2022-07-11T12:24:18;2.37;;;1.70;;
8714;SDS011;4394;51.208;8.904;2022-07-11T12:27:09;1.60;;;1.50;;
8714;SDS011;4394;51.208;8.904;2022-07-11T12:29:57;1.63;;;1.53;;
8714;SDS011;4394;51.208;8.904;2022-07-11T12:35:57;2.77;;;1.50;;
8714;SDS011;4394;51.208;8.904;2022-07-11T12:38:47;2.13;;;1.77;;
8714;SDS011;4394;51.208;8.904;2022-07-11T12:41:37;1.90;;;1.73;;
8714;SDS011;4394;51.208;8.904;2022-07-11T12:44:27;2.33;;;2.00;;
8714;SDS011;4394;51.208;8.904;2022-07-11T12:47:34;3.30;;;1.90;;
8714;SDS011;4394;51.208;8.904;2022-07-11T12:50:27;2.07;;;1.93;;
8714;SDS011;4394;51.208;8.904;2022-07-11T12:53:15;3.33;;;1.67;;
8714;SDS011;4394;51.208;8.904;2022-07-11T12:56:03;2.17;;;1.97;;
8714;SDS011;4394;51.208;8.904;2022-07-11T12:58:52;1.67;;;1.57;;
8714;SDS011;4394;51.208;8.904;2022-07-11T13:01:54;2.13;;;1.93;;
8714;SDS011;4394;51.208;8.904;2022-07-11T13:04:45;2.17;;;1.83;;
8714;SDS011;4394;51.208;8.904;2022-07-11T13:07:34;2.27;;;2.07;;
8714;SDS011;4394;51.208;8.904;2022-07-11T13:10:43;2.13;;;1.80;;
8714;SDS011;4394;51.208;8.904;2022-07-11T13:13:50;1.90;;;1.60;;
8714;SDS011;4394;51.208;8.904;2022-07-11T13:16:39;3.20;;;1.90;;
8714;SDS011;4394;51.208;8.904;2022-07-11T13:19:28;1.93;;;1.77;;
8714;SDS011;4394;51.208;8.904;2022-07-11T13:22:16;1.80;;;1.67;;
8714;SDS011;4394;51.208;8.904;2022-07-11T13:25:04;3.03;;;2.03;;
8714;SDS011;4394;51.208;8.904;2022-07-11T13:27:54;2.03;;;1.70;;
8714;SDS011;4394;51.208;8.904;2022-07-11T13:30:43;1.90;;;1.80;;
8714;SDS011;4394;51.208;8.904;2022-07-11T13:33:51;2.03;;;1.40;;
8714;SDS011;4394;51.208;8.904;2022-07-11T13:36:40;2.27;;;2.07;;
8714;SDS011;4394;51.208;8.904;2022-07-11T13:39:28;1.97;;;1.83;;
8714;SDS011;4394;51.208;8.904;2022-07-11T13:42:16;2.43;;;2.23;;
8714;SDS011;4394;51.208;8.904;2022-07-11T13:45:04;2.47;;;2.10;;
8714;SDS011;4394;51.208;8.904;2022-07-11T13:47:53;2.63;;;2.43;;
8714;SDS011;4394;51.208;8.904;2022-07-11T13:50:42;2.37;;;2.17;;
8714;SDS011;4394;51.208;8.904;2022-07-11T13:53:32;2.43;;;2.23;;
8714;SDS011;4394;51.208;8.904;2022-07-11T13:56:20;2.00;;;1.90;;
8714;SDS011;4394;51.208;8.904;2022-07-11T13:59:09;2.50;;;2.30;;
8714;SDS011;4394;51.208;8.904;2022-07-11T14:01:57;2.13;;;1.93;;
8714;SDS011;4394;51.208;8.904;2022-07-11T14:04:45;1.70;;;1.60;;
8714;SDS011;4394;51.208;8.904;2022-07-11T14:07:33;2.87;;;2.30;;
8714;SDS011;4394;51.208;8.904;2022-07-11T14:10:23;2.07;;;1.97;;
8714;SDS011;4394;51.208;8.904;2022-07-11T14:13:15;2.37;;;2.17;;
8714;SDS011;4394;51.208;8.904;2022-07-11T14:16:03;2.10;;;2.00;;
8714;SDS011;4394;51.208;8.904;2022-07-11T14:19:04;1.87;;;1.77;;
8714;SDS011;4394;51.208;8.904;2022-07-11T14:21:53;2.13;;;2.03;;
8714;SDS011;4394;51.208;8.904;2022-07-11T14:24:41;2.67;;;2.30;;
8714;SDS011;4394;51.208;8.904;2022-07-11T14:27:31;2.70;;;2.50;;
8714;SDS011;4394;51.208;8.904;2022-07-11T14:30:18;2.03;;;1.90;;
8714;SDS011;4394;51.208;8.904;2022-07-11T14:33:06;2.07;;;1.93;;
8714;SDS011;4394;51.208;8.904;2022-07-11T14:35:55;2.30;;;2.13;;
8714;SDS011;4394;51.208;8.904;2022-07-11T14:38:43;2.77;;;2.30;;
8714;SDS011;4394;51.208;8.904;2022-07-11T14:41:31;2.40;;;2.20;;
8714;SDS011;4394;51.208;8.904;2022-07-11T14:44:20;2.00;;;1.90;;
8714;SDS011;4394;51.208;8.904;2022-07-11T14:47:08;3.00;;;2.40;;
8714;SDS011;4394;51.208;8.904;2022-07-11T14:49:56;2.20;;;2.00;;
8714;SDS011;4394;51.208;8.904;2022-07-11T14:52:44;2.30;;;2.10;;
8714;SDS011;4394;51.208;8.904;2022-07-11T14:55:33;2.53;;;2.33;;
8714;SDS011;4394;51.208;8.904;2022-07-11T14:58:21;2.40;;;2.20;;
8714;SDS011;4394;51.208;8.904;2022-07-11T15:01:10;1.70;;;1.60;;
8714;SDS011;4394;51.208;8.904;2022-07-11T15:03:58;2.20;;;2.00;;
8714;SDS011;4394;51.208;8.904;2022-07-11T15:06:48;3.30;;;2.00;;
8714;SDS011;4394;51.208;8.904;2022-07-11T15:09:56;1.90;;;1.80;;
8714;SDS011;4394;51.208;8.904;2022-07-11T15:13:02;2.10;;;2.00;;
8714;SDS011;4394;51.208;8.904;2022-07-11T15:15:49;2.17;;;1.97;;
8714;SDS011;4394;51.208;8.904;2022-07-11T15:18:39;3.20;;;2.20;;
8714;SDS011;4394;51.208;8.904;2022-07-11T15:21:27;2.40;;;2.20;;
8714;SDS011;4394;51.208;8.904;2022-07-11T15:24:15;2.70;;;2.43;;
8714;SDS011;4394;51.208;8.904;2022-07-11T15:27:03;2.50;;;2.30;;
8714;SDS011;4394;51.208;8.904;2022-07-11T15:29:52;3.17;;;2.50;;
8714;SDS011;4394;51.208;8.904;2022-07-11T15:32:40;2.23;;;2.03;;
8714;SDS011;4394;51.208;8.904;2022-07-11T15:35:29;2.53;;;2.10;;
8714;SDS011;4394;51.208;8.904;2022-07-11T15:38:17;2.80;;;2.00;;
8714;SDS011;4394;51.208;8.904;2022-07-11T15:41:08;2.33;;;1.70;;
8714;SDS011;4394;51.208;8.904;2022-07-11T15:43:56;1.43;;;1.33;;
8714;SDS011;4394;51.208;8.904;2022-07-11T15:46:44;1.93;;;1.60;;
8714;SDS011;4394;51.208;8.904;2022-07-11T15:49:32;2.17;;;1.40;;
8714;SDS011;4394;51.208;8.904;2022-07-11T15:52:21;2.93;;;1.50;;
8714;SDS011;4394;51.208;8.904;2022-07-11T15:55:09;1.27;;;1.27;;
8714;SDS011;4394;51.208;8.904;2022-07-11T15:57:57;1.33;;;1.13;;
8714;SDS011;4394;51.208;8.904;2022-07-11T16:00:45;1.50;;;1.40;;
8714;SDS011;4394;51.208;8.904;2022-07-11T16:03:33;2.80;;;1.50;;
8714;SDS011;4394;51.208;8.904;2022-07-11T16:06:22;1.63;;;1.40;;
8714;SDS011;4394;51.208;8.904;2022-07-11T16:09:11;1.40;;;1.20;;
8714;SDS011;4394;51.208;8.904;2022-07-11T16:11:59;1.50;;;1.40;;
8714;SDS011;4394;51.208;8.904;2022-07-11T16:14:47;1.57;;;1.00;;
8714;SDS011;4394;51.208;8.904;2022-07-11T16:17:35;1.87;;;1.10;;
8714;SDS011;4394;51.208;8.904;2022-07-11T16:20:23;1.67;;;1.50;;
8714;SDS011;4394;51.208;8.904;2022-07-11T16:23:12;3.17;;;2.33;;
8714;SDS011;4394;51.208;8.904;2022-07-11T16:26:01;2.70;;;2.50;;
8714;SDS011;4394;51.208;8.904;2022-07-11T16:28:49;2.93;;;2.73;;
8714;SDS011;4394;51.208;8.904;2022-07-11T16:31:40;2.90;;;2.70;;
8714;SDS011;4394;51.208;8.904;2022-07-11T16:34:28;3.87;;;3.50;;
8714;SDS011;4394;51.208;8.904;2022-07-11T16:37:16;3.50;;;2.83;;
8714;SDS011;4394;51.208;8.904;2022-07-11T16:40:04;3.83;;;3.07;;
8714;SDS011;4394;51.208;8.904;2022-07-11T16:43:12;3.50;;;3.20;;
8714;SDS011;4394;51.208;8.904;2022-07-11T16:46:10;3.70;;;3.40;;
8714;SDS011;4394;51.208;8.904;2022-07-11T16:48:58;3.73;;;3.43;;
8714;SDS011;4394;51.208;8.904;2022-07-11T16:51:46;4.47;;;3.10;;
8714;SDS011;4394;51.208;8.904;2022-07-11T16:54:35;4.20;;;3.80;;
8714;SDS011;4394;51.208;8.904;2022-07-11T16:57:24;4.47;;;4.07;;
8714;SDS011;4394;51.208;8.904;2022-07-11T17:00:13;3.80;;;3.40;;
8714;SDS011;4394;51.208;8.904;2022-07-11T17:03:01;4.97;;;3.00;;
8714;SDS011;4394;51.208;8.904;2022-07-11T17:05:50;3.60;;;3.30;;
8714;SDS011;4394;51.208;8.904;2022-07-11T17:08:38;3.80;;;3.50;;
8714;SDS011;4394;51.208;8.904;2022-07-11T17:11:32;3.73;;;3.10;;
8714;SDS011;4394;51.208;8.904;2022-07-11T17:14:21;3.23;;;2.97;;
8714;SDS011;4394;51.208;8.904;2022-07-11T17:17:10;3.50;;;3.20;;
8714;SDS011;4394;51.208;8.904;2022-07-11T17:19:58;3.70;;;3.40;;
8714;SDS011;4394;51.208;8.904;2022-07-11T17:22:46;3.90;;;3.50;;
8714;SDS011;4394;51.208;8.904;2022-07-11T17:25:34;3.60;;;3.30;;
8714;SDS011;4394;51.208;8.904;2022-07-11T17:28:22;3.93;;;3.63;;
8714;SDS011;4394;51.208;8.904;2022-07-11T17:31:10;4.73;;;3.60;;
8714;SDS011;4394;51.208;8.904;2022-07-11T17:33:59;3.73;;;3.43;;
8714;SDS011;4394;51.208;8.904;2022-07-11T17:36:48;4.37;;;3.63;;
8714;SDS011;4394;51.208;8.904;2022-07-11T17:39:36;4.20;;;3.40;;
8714;SDS011;4394;51.208;8.904;2022-07-11T17:42:24;3.40;;;3.10;;